Aviation Digital Data Service (ADDS)

Output produced by METARs form (1140 UTC 27 May 2017)
found at http://www.aviationweather.gov/adds/metars/
 
LJLJ 271130Z 09004KT 060V190 9999 FEW068 24/10 Q1020 NOSIG
TAF LJLJ 271100Z 2712/2812 11005KT 9999 FEW070 
     BECMG 2717/2719 30003KT 
     BECMG 2808/2810 11005KT
       
LJMB 271130Z 04007KT 340V070 9999 BKN050 24/09 Q1021
TAF LJMB 271100Z 2712/2812 03007KT 9999 SCT050 
     PROB40 
     TEMPO 2712/2715 BKN050 
     BECMG 2715/2717 07005KT 
     BECMG 2718/2721 35003KT CAVOK 
     BECMG 2809/2811 12005KT
       
LJPZ 271130Z 31008KT 280V350 9999 FEW050 25/14 Q1019
TAF LJPZ 271100Z 2712/2721 30007KT 9999 FEW050 
     BECMG 2714/2717 25007KT 
     BECMG 2717/2719 12007KT